Terminal Aerodrome Forecast
Issued by NWS Twin Cities, MN

Home | Current Version | Previous Version | Graphics & Text | Print | Product List | Glossary On
Versions: 1 2 3 4 5 6 7 8 9 10 11 12 13 14 15 16 17 18 19 20 21 22 23 24
000
FTUS43 KMPX 221100
TAFMSP
TAF
KMSP 221136Z 2212/2318 33004KT 6SM BR OVC007
     FM221500 36004KT P6SM OVC012
     FM221800 36004KT P6SM BKN020
     FM222000 01004KT P6SM SCT030
     FM230300 05005KT P6SM BKN200
     FM230900 06005KT 4SM BR BKN007
     FM231600 10006KT 6SM BR BKN020=

USA.gov is the U.S. government's official web portal to all federal, state and local government web resources and services.